sensor_id;sensor_type;location;lat;lon;timestamp;temperature;humidity
27823;DHT22;29019;47.630;8.262;2023-08-21T00:01:46;23.90;60.70
27823;DHT22;29019;47.630;8.262;2023-08-21T00:05:47;23.90;60.80
27823;DHT22;29019;47.630;8.262;2023-08-21T00:09:48;23.90;60.80
27823;DHT22;29019;47.630;8.262;2023-08-21T00:13:48;23.90;60.80
27823;DHT22;29019;47.630;8.262;2023-08-21T00:17:49;23.90;60.90
27823;DHT22;29019;47.630;8.262;2023-08-21T00:21:50;23.90;60.90
27823;DHT22;29019;47.630;8.262;2023-08-21T00:25:50;23.90;60.90
27823;DHT22;29019;47.630;8.262;2023-08-21T00:29:51;23.90;60.80
27823;DHT22;29019;47.630;8.262;2023-08-21T00:33:51;23.90;60.80
27823;DHT22;29019;47.630;8.262;2023-08-21T00:37:52;24.00;60.90
27823;DHT22;29019;47.630;8.262;2023-08-21T00:41:53;23.90;60.90
27823;DHT22;29019;47.630;8.262;2023-08-21T00:45:53;23.90;60.90
27823;DHT22;29019;47.630;8.262;2023-08-21T00:49:54;23.90;60.90
27823;DHT22;29019;47.630;8.262;2023-08-21T00:53:54;23.90;60.90
27823;DHT22;29019;47.630;8.262;2023-08-21T00:57:55;23.90;60.80
27823;DHT22;29019;47.630;8.262;2023-08-21T01:01:56;23.90;60.80
27823;DHT22;29019;47.630;8.262;2023-08-21T01:05:56;24.00;60.90
27823;DHT22;29019;47.630;8.262;2023-08-21T01:18:01;23.90;60.80
27823;DHT22;29019;47.630;8.262;2023-08-21T01:22:02;23.90;60.80
27823;DHT22;29019;47.630;8.262;2023-08-21T01:26:03;23.90;60.80
27823;DHT22;29019;47.630;8.262;2023-08-21T01:30:04;23.90;60.80
27823;DHT22;29019;47.630;8.262;2023-08-21T01:34:06;23.90;60.80
27823;DHT22;29019;47.630;8.262;2023-08-21T01:38:09;24.00;60.90
27823;DHT22;29019;47.630;8.262;2023-08-21T01:42:10;23.90;60.80
27823;DHT22;29019;47.630;8.262;2023-08-21T01:46:11;23.90;60.80
27823;DHT22;29019;47.630;8.262;2023-08-21T01:50:12;23.90;60.90
27823;DHT22;29019;47.630;8.262;2023-08-21T01:54:13;23.90;60.90
27823;DHT22;29019;47.630;8.262;2023-08-21T01:58:13;23.90;60.90
27823;DHT22;29019;47.630;8.262;2023-08-21T02:02:14;23.90;60.90
27823;DHT22;29019;47.630;8.262;2023-08-21T02:06:14;23.90;60.90
27823;DHT22;29019;47.630;8.262;2023-08-21T02:10:15;23.90;61.70
27823;DHT22;29019;47.630;8.262;2023-08-21T02:14:15;23.90;60.90
27823;DHT22;29019;47.630;8.262;2023-08-21T02:18:16;23.90;60.90
27823;DHT22;29019;47.630;8.262;2023-08-21T02:22:17;23.90;60.90
27823;DHT22;29019;47.630;8.262;2023-08-21T02:26:17;23.90;60.90
27823;DHT22;29019;47.630;8.262;2023-08-21T02:30:20;23.90;60.90
27823;DHT22;29019;47.630;8.262;2023-08-21T02:34:20;23.90;60.90
27823;DHT22;29019;47.630;8.262;2023-08-21T02:38:21;23.90;60.90
27823;DHT22;29019;47.630;8.262;2023-08-21T02:42:21;23.90;60.90
27823;DHT22;29019;47.630;8.262;2023-08-21T02:46:22;23.90;60.90
27823;DHT22;29019;47.630;8.262;2023-08-21T02:50:22;23.90;61.70
27823;DHT22;29019;47.630;8.262;2023-08-21T02:54:23;23.90;60.90
27823;DHT22;29019;47.630;8.262;2023-08-21T02:58:23;23.90;61.60
27823;DHT22;29019;47.630;8.262;2023-08-21T03:02:24;23.90;60.80
27823;DHT22;29019;47.630;8.262;2023-08-21T03:06:24;23.90;60.90
27823;DHT22;29019;47.630;8.262;2023-08-21T03:10:25;23.90;60.80
27823;DHT22;29019;47.630;8.262;2023-08-21T03:14:27;23.90;60.90
27823;DHT22;29019;47.630;8.262;2023-08-21T03:18:30;24.00;60.90
27823;DHT22;29019;47.630;8.262;2023-08-21T03:22:31;23.90;60.90
27823;DHT22;29019;47.630;8.262;2023-08-21T03:26:34;23.90;60.90
27823;DHT22;29019;47.630;8.262;2023-08-21T03:30:35;23.90;60.90
27823;DHT22;29019;47.630;8.262;2023-08-21T03:34:35;23.90;61.00
27823;DHT22;29019;47.630;8.262;2023-08-21T03:38:36;23.90;60.90
27823;DHT22;29019;47.630;8.262;2023-08-21T03:42:36;23.90;61.00
27823;DHT22;29019;47.630;8.262;2023-08-21T03:46:37;23.90;61.00
27823;DHT22;29019;47.630;8.262;2023-08-21T03:50:37;23.90;61.00
27823;DHT22;29019;47.630;8.262;2023-08-21T03:54:38;23.90;61.00
27823;DHT22;29019;47.630;8.262;2023-08-21T03:58:39;23.90;61.00
27823;DHT22;29019;47.630;8.262;2023-08-21T04:02:39;23.90;60.90
27823;DHT22;29019;47.630;8.262;2023-08-21T04:06:40;23.90;60.90
27823;DHT22;29019;47.630;8.262;2023-08-21T04:10:40;23.90;60.90
27823;DHT22;29019;47.630;8.262;2023-08-21T04:14:42;23.90;60.90
27823;DHT22;29019;47.630;8.262;2023-08-21T04:18:43;23.90;60.90
27823;DHT22;29019;47.630;8.262;2023-08-21T04:22:43;23.90;61.00
27823;DHT22;29019;47.630;8.262;2023-08-21T04:26:44;23.90;60.90
27823;DHT22;29019;47.630;8.262;2023-08-21T04:30:44;23.90;60.90
27823;DHT22;29019;47.630;8.262;2023-08-21T04:34:45;23.90;60.90
27823;DHT22;29019;47.630;8.262;2023-08-21T04:38:45;23.90;60.90
27823;DHT22;29019;47.630;8.262;2023-08-21T04:42:46;23.90;60.90
27823;DHT22;29019;47.630;8.262;2023-08-21T04:46:47;23.90;60.90
27823;DHT22;29019;47.630;8.262;2023-08-21T04:50:48;23.90;60.90
27823;DHT22;29019;47.630;8.262;2023-08-21T04:54:49;23.90;60.90
27823;DHT22;29019;47.630;8.262;2023-08-21T04:58:49;23.90;60.90
27823;DHT22;29019;47.630;8.262;2023-08-21T05:02:50;23.90;60.90
27823;DHT22;29019;47.630;8.262;2023-08-21T05:06:50;23.90;60.90
27823;DHT22;29019;47.630;8.262;2023-08-21T05:10:57;23.90;60.90
27823;DHT22;29019;47.630;8.262;2023-08-21T05:14:58;23.90;60.90
27823;DHT22;29019;47.630;8.262;2023-08-21T05:18:58;23.90;60.90
27823;DHT22;29019;47.630;8.262;2023-08-21T05:22:59;23.90;61.00
27823;DHT22;29019;47.630;8.262;2023-08-21T05:26:59;23.90;61.00
27823;DHT22;29019;47.630;8.262;2023-08-21T05:31:00;23.90;61.00
27823;DHT22;29019;47.630;8.262;2023-08-21T05:35:01;23.90;61.00
27823;DHT22;29019;47.630;8.262;2023-08-21T05:39:02;23.90;61.00
27823;DHT22;29019;47.630;8.262;2023-08-21T05:43:05;23.90;61.00
27823;DHT22;29019;47.630;8.262;2023-08-21T05:47:05;23.90;61.00
27823;DHT22;29019;47.630;8.262;2023-08-21T05:51:06;23.90;61.00
27823;DHT22;29019;47.630;8.262;2023-08-21T05:55:06;23.90;61.00
27823;DHT22;29019;47.630;8.262;2023-08-21T05:59:09;23.90;60.90
27823;DHT22;29019;47.630;8.262;2023-08-21T06:03:10;23.90;61.00
27823;DHT22;29019;47.630;8.262;2023-08-21T06:07:11;23.90;61.00
27823;DHT22;29019;47.630;8.262;2023-08-21T06:11:11;23.90;61.00
27823;DHT22;29019;47.630;8.262;2023-08-21T06:15:12;23.90;61.00
27823;DHT22;29019;47.630;8.262;2023-08-21T06:19:13;23.90;61.00
27823;DHT22;29019;47.630;8.262;2023-08-21T06:23:13;23.90;61.00
27823;DHT22;29019;47.630;8.262;2023-08-21T06:27:14;23.90;60.90
27823;DHT22;29019;47.630;8.262;2023-08-21T06:31:14;23.90;60.90
27823;DHT22;29019;47.630;8.262;2023-08-21T06:35:15;23.90;60.90
27823;DHT22;29019;47.630;8.262;2023-08-21T06:39:16;23.90;61.00
27823;DHT22;29019;47.630;8.262;2023-08-21T06:43:17;23.90;61.00
27823;DHT22;29019;47.630;8.262;2023-08-21T06:47:17;23.90;60.90
27823;DHT22;29019;47.630;8.262;2023-08-21T06:51:18;23.90;60.90
27823;DHT22;29019;47.630;8.262;2023-08-21T06:55:19;23.90;60.90
27823;DHT22;29019;47.630;8.262;2023-08-21T06:59:19;23.90;61.20
27823;DHT22;29019;47.630;8.262;2023-08-21T07:03:20;23.90;61.00
27823;DHT22;29019;47.630;8.262;2023-08-21T07:07:20;23.90;61.00
27823;DHT22;29019;47.630;8.262;2023-08-21T07:11:21;23.90;61.00
27823;DHT22;29019;47.630;8.262;2023-08-21T07:15:22;23.90;61.00
27823;DHT22;29019;47.630;8.262;2023-08-21T07:19:22;23.90;61.00
27823;DHT22;29019;47.630;8.262;2023-08-21T07:23:23;23.90;61.00
27823;DHT22;29019;47.630;8.262;2023-08-21T07:27:23;23.90;61.00
27823;DHT22;29019;47.630;8.262;2023-08-21T07:31:24;23.90;61.00
27823;DHT22;29019;47.630;8.262;2023-08-21T07:35:25;23.90;61.00
27823;DHT22;29019;47.630;8.262;2023-08-21T07:39:25;23.90;61.00
27823;DHT22;29019;47.630;8.262;2023-08-21T07:43:26;23.90;61.00
27823;DHT22;29019;47.630;8.262;2023-08-21T07:47:26;23.90;61.00
27823;DHT22;29019;47.630;8.262;2023-08-21T07:51:27;23.90;61.00
27823;DHT22;29019;47.630;8.262;2023-08-21T07:55:28;23.90;61.00
27823;DHT22;29019;47.630;8.262;2023-08-21T07:59:28;23.90;61.00
27823;DHT22;29019;47.630;8.262;2023-08-21T08:03:29;23.90;61.00
27823;DHT22;29019;47.630;8.262;2023-08-21T08:07:29;23.90;61.00
27823;DHT22;29019;47.630;8.262;2023-08-21T08:11:30;23.90;60.90
27823;DHT22;29019;47.630;8.262;2023-08-21T08:15:30;23.90;60.90
27823;DHT22;29019;47.630;8.262;2023-08-21T08:19:31;23.90;60.90
27823;DHT22;29019;47.630;8.262;2023-08-21T08:23:31;23.90;60.90
27823;DHT22;29019;47.630;8.262;2023-08-21T08:27:32;23.90;60.90
27823;DHT22;29019;47.630;8.262;2023-08-21T08:31:32;23.90;60.90
27823;DHT22;29019;47.630;8.262;2023-08-21T08:35:33;23.90;60.90
27823;DHT22;29019;47.630;8.262;2023-08-21T08:39:34;23.90;61.00
27823;DHT22;29019;47.630;8.262;2023-08-21T08:43:35;23.90;61.00
27823;DHT22;29019;47.630;8.262;2023-08-21T08:47:38;23.90;61.00
27823;DHT22;29019;47.630;8.262;2023-08-21T08:51:39;23.90;61.00
27823;DHT22;29019;47.630;8.262;2023-08-21T08:55:41;23.90;61.00
27823;DHT22;29019;47.630;8.262;2023-08-21T08:59:41;23.90;61.00
27823;DHT22;29019;47.630;8.262;2023-08-21T09:03:42;23.90;61.00
27823;DHT22;29019;47.630;8.262;2023-08-21T09:07:45;23.90;61.00
27823;DHT22;29019;47.630;8.262;2023-08-21T09:11:51;23.90;61.00
27823;DHT22;29019;47.630;8.262;2023-08-21T09:15:55;23.90;60.90
27823;DHT22;29019;47.630;8.262;2023-08-21T09:19:56;23.90;60.90
27823;DHT22;29019;47.630;8.262;2023-08-21T09:24:03;23.90;61.00
27823;DHT22;29019;47.630;8.262;2023-08-21T09:28:04;23.90;60.90
27823;DHT22;29019;47.630;8.262;2023-08-21T09:32:06;23.90;60.90
27823;DHT22;29019;47.630;8.262;2023-08-21T09:36:07;23.90;60.90
27823;DHT22;29019;47.630;8.262;2023-08-21T09:40:09;23.90;61.00
27823;DHT22;29019;47.630;8.262;2023-08-21T09:44:11;23.90;60.90
27823;DHT22;29019;47.630;8.262;2023-08-21T09:48:13;23.90;61.00
27823;DHT22;29019;47.630;8.262;2023-08-21T09:52:13;23.90;60.90
27823;DHT22;29019;47.630;8.262;2023-08-21T09:56:14;23.90;60.90
27823;DHT22;29019;47.630;8.262;2023-08-21T10:00:15;23.90;60.90
27823;DHT22;29019;47.630;8.262;2023-08-21T10:04:16;23.90;60.90
27823;DHT22;29019;47.630;8.262;2023-08-21T10:08:18;23.90;60.90
27823;DHT22;29019;47.630;8.262;2023-08-21T10:12:21;23.90;60.90
27823;DHT22;29019;47.630;8.262;2023-08-21T10:16:22;23.90;60.90
27823;DHT22;29019;47.630;8.262;2023-08-21T10:20:24;23.90;60.90
27823;DHT22;29019;47.630;8.262;2023-08-21T10:24:28;23.90;60.90
27823;DHT22;29019;47.630;8.262;2023-08-21T10:28:41;23.90;60.90
27823;DHT22;29019;47.630;8.262;2023-08-21T10:32:46;23.90;60.90
27823;DHT22;29019;47.630;8.262;2023-08-21T10:37:02;23.90;61.80
27823;DHT22;29019;47.630;8.262;2023-08-21T10:41:04;23.90;60.90
27823;DHT22;29019;47.630;8.262;2023-08-21T10:45:11;23.90;60.90
27823;DHT22;29019;47.630;8.262;2023-08-21T10:49:12;23.90;60.90
27823;DHT22;29019;47.630;8.262;2023-08-21T10:53:12;23.90;60.90
27823;DHT22;29019;47.630;8.262;2023-08-21T10:57:13;23.90;60.90
27823;DHT22;29019;47.630;8.262;2023-08-21T11:01:14;23.90;60.90
27823;DHT22;29019;47.630;8.262;2023-08-21T11:05:15;23.90;60.90
27823;DHT22;29019;47.630;8.262;2023-08-21T11:09:16;23.90;60.80
27823;DHT22;29019;47.630;8.262;2023-08-21T11:13:17;23.90;60.80
27823;DHT22;29019;47.630;8.262;2023-08-21T11:17:18;23.90;60.80
27823;DHT22;29019;47.630;8.262;2023-08-21T11:21:23;23.90;60.80
27823;DHT22;29019;47.630;8.262;2023-08-21T11:25:25;24.00;60.90
27823;DHT22;29019;47.630;8.262;2023-08-21T11:29:26;23.90;60.80
27823;DHT22;29019;47.630;8.262;2023-08-21T11:33:27;23.90;60.80
27823;DHT22;29019;47.630;8.262;2023-08-21T11:37:28;23.90;60.80
27823;DHT22;29019;47.630;8.262;2023-08-21T11:41:28;24.00;61.60
27823;DHT22;29019;47.630;8.262;2023-08-21T11:45:29;24.00;60.90
27823;DHT22;29019;47.630;8.262;2023-08-21T11:49:30;24.00;60.80
27823;DHT22;29019;47.630;8.262;2023-08-21T11:53:31;23.90;60.70
27823;DHT22;29019;47.630;8.262;2023-08-21T11:57:32;23.90;60.80
27823;DHT22;29019;47.630;8.262;2023-08-21T12:01:32;24.00;60.80
27823;DHT22;29019;47.630;8.262;2023-08-21T12:05:33;24.00;60.90
27823;DHT22;29019;47.630;8.262;2023-08-21T12:09:34;24.00;60.90
27823;DHT22;29019;47.630;8.262;2023-08-21T12:13:34;24.00;60.90
27823;DHT22;29019;47.630;8.262;2023-08-21T12:17:35;23.90;60.70
27823;DHT22;29019;47.630;8.262;2023-08-21T12:21:35;24.00;60.80
27823;DHT22;29019;47.630;8.262;2023-08-21T12:25:38;24.00;60.70
27823;DHT22;29019;47.630;8.262;2023-08-21T12:29:38;24.00;60.70
27823;DHT22;29019;47.630;8.262;2023-08-21T12:33:39;24.00;60.70
27823;DHT22;29019;47.630;8.262;2023-08-21T12:37:39;24.00;60.70
27823;DHT22;29019;47.630;8.262;2023-08-21T12:41:40;24.00;60.70
27823;DHT22;29019;47.630;8.262;2023-08-21T12:45:40;24.00;60.70
27823;DHT22;29019;47.630;8.262;2023-08-21T12:49:41;24.00;60.70
27823;DHT22;29019;47.630;8.262;2023-08-21T12:53:42;24.00;60.70
27823;DHT22;29019;47.630;8.262;2023-08-21T12:57:42;24.00;60.70
27823;DHT22;29019;47.630;8.262;2023-08-21T13:01:43;24.00;60.70
27823;DHT22;29019;47.630;8.262;2023-08-21T13:05:43;24.00;60.70
27823;DHT22;29019;47.630;8.262;2023-08-21T13:09:44;24.00;60.70
27823;DHT22;29019;47.630;8.262;2023-08-21T13:13:44;24.00;60.70
27823;DHT22;29019;47.630;8.262;2023-08-21T13:17:45;24.00;60.70
27823;DHT22;29019;47.630;8.262;2023-08-21T13:21:45;24.00;60.70
27823;DHT22;29019;47.630;8.262;2023-08-21T13:25:46;24.00;60.60
27823;DHT22;29019;47.630;8.262;2023-08-21T13:29:46;24.00;60.60
27823;DHT22;29019;47.630;8.262;2023-08-21T13:33:47;24.00;60.60
27823;DHT22;29019;47.630;8.262;2023-08-21T13:37:48;24.00;60.60
27823;DHT22;29019;47.630;8.262;2023-08-21T13:41:49;24.10;60.60
27823;DHT22;29019;47.630;8.262;2023-08-21T13:45:50;24.10;60.60
27823;DHT22;29019;47.630;8.262;2023-08-21T13:49:51;24.10;60.60
27823;DHT22;29019;47.630;8.262;2023-08-21T13:53:51;24.00;60.60
27823;DHT22;29019;47.630;8.262;2023-08-21T13:57:52;24.00;60.50
27823;DHT22;29019;47.630;8.262;2023-08-21T14:01:52;24.00;60.50
27823;DHT22;29019;47.630;8.262;2023-08-21T14:05:53;24.00;60.50
27823;DHT22;29019;47.630;8.262;2023-08-21T14:09:53;24.00;60.50
27823;DHT22;29019;47.630;8.262;2023-08-21T14:13:54;24.10;60.60
27823;DHT22;29019;47.630;8.262;2023-08-21T14:17:54;24.10;60.60
27823;DHT22;29019;47.630;8.262;2023-08-21T14:21:57;24.00;60.50
27823;DHT22;29019;47.630;8.262;2023-08-21T14:25:57;24.10;60.50
27823;DHT22;29019;47.630;8.262;2023-08-21T14:29:58;24.10;60.60
27823;DHT22;29019;47.630;8.262;2023-08-21T14:33:59;24.10;60.60
27823;DHT22;29019;47.630;8.262;2023-08-21T14:37:59;24.10;60.60
27823;DHT22;29019;47.630;8.262;2023-08-21T14:42:00;24.10;60.60
27823;DHT22;29019;47.630;8.262;2023-08-21T14:46:01;24.10;60.60
27823;DHT22;29019;47.630;8.262;2023-08-21T14:50:04;24.10;60.50
27823;DHT22;29019;47.630;8.262;2023-08-21T14:54:06;24.10;60.60
27823;DHT22;29019;47.630;8.262;2023-08-21T14:58:07;24.10;60.50
27823;DHT22;29019;47.630;8.262;2023-08-21T15:02:09;24.10;60.50
27823;DHT22;29019;47.630;8.262;2023-08-21T15:06:10;24.10;60.50
27823;DHT22;29019;47.630;8.262;2023-08-21T15:10:10;24.10;60.50
27823;DHT22;29019;47.630;8.262;2023-08-21T15:14:11;24.10;60.60
27823;DHT22;29019;47.630;8.262;2023-08-21T15:18:12;24.10;60.50
27823;DHT22;29019;47.630;8.262;2023-08-21T15:22:12;24.10;60.50
27823;DHT22;29019;47.630;8.262;2023-08-21T15:26:13;24.10;60.50
27823;DHT22;29019;47.630;8.262;2023-08-21T15:30:14;24.10;60.50
27823;DHT22;29019;47.630;8.262;2023-08-21T15:34:14;24.10;60.50
27823;DHT22;29019;47.630;8.262;2023-08-21T15:38:15;24.10;60.50
27823;DHT22;29019;47.630;8.262;2023-08-21T15:42:15;24.10;60.50
27823;DHT22;29019;47.630;8.262;2023-08-21T15:46:16;24.10;60.50
27823;DHT22;29019;47.630;8.262;2023-08-21T15:50:17;24.10;60.50
27823;DHT22;29019;47.630;8.262;2023-08-21T15:54:19;24.10;60.60
27823;DHT22;29019;47.630;8.262;2023-08-21T15:58:20;24.10;60.50
27823;DHT22;29019;47.630;8.262;2023-08-21T16:02:21;24.10;60.50
27823;DHT22;29019;47.630;8.262;2023-08-21T16:06:21;24.10;60.60
27823;DHT22;29019;47.630;8.262;2023-08-21T16:10:22;24.10;60.50
27823;DHT22;29019;47.630;8.262;2023-08-21T16:14:22;24.10;60.50
27823;DHT22;29019;47.630;8.262;2023-08-21T16:18:23;24.10;60.50
27823;DHT22;29019;47.630;8.262;2023-08-21T16:22:23;24.10;60.50
27823;DHT22;29019;47.630;8.262;2023-08-21T16:26:24;24.10;60.50
27823;DHT22;29019;47.630;8.262;2023-08-21T16:30:24;24.10;60.60
27823;DHT22;29019;47.630;8.262;2023-08-21T16:34:25;24.10;60.50
27823;DHT22;29019;47.630;8.262;2023-08-21T16:38:25;24.10;60.60
27823;DHT22;29019;47.630;8.262;2023-08-21T16:42:26;24.10;60.60
27823;DHT22;29019;47.630;8.262;2023-08-21T16:46:27;24.10;60.60
27823;DHT22;29019;47.630;8.262;2023-08-21T16:50:27;24.10;60.50
27823;DHT22;29019;47.630;8.262;2023-08-21T16:54:28;24.10;60.40
27823;DHT22;29019;47.630;8.262;2023-08-21T16:58:28;24.10;60.50
27823;DHT22;29019;47.630;8.262;2023-08-21T17:02:29;24.10;60.50
27823;DHT22;29019;47.630;8.262;2023-08-21T17:06:29;24.10;60.50
27823;DHT22;29019;47.630;8.262;2023-08-21T17:10:30;24.10;60.50
27823;DHT22;29019;47.630;8.262;2023-08-21T17:14:30;24.10;60.40
27823;DHT22;29019;47.630;8.262;2023-08-21T17:18:31;24.10;60.40
27823;DHT22;29019;47.630;8.262;2023-08-21T17:22:31;24.10;60.50
27823;DHT22;29019;47.630;8.262;2023-08-21T17:26:32;24.10;60.50
27823;DHT22;29019;47.630;8.262;2023-08-21T17:30:33;24.10;60.40
27823;DHT22;29019;47.630;8.262;2023-08-21T17:34:34;24.10;60.40
27823;DHT22;29019;47.630;8.262;2023-08-21T17:38:35;24.10;60.40
27823;DHT22;29019;47.630;8.262;2023-08-21T17:42:35;24.10;60.40
27823;DHT22;29019;47.630;8.262;2023-08-21T17:46:36;24.10;60.40
27823;DHT22;29019;47.630;8.262;2023-08-21T17:50:36;24.10;60.40
27823;DHT22;29019;47.630;8.262;2023-08-21T17:54:37;24.10;60.50
27823;DHT22;29019;47.630;8.262;2023-08-21T17:58:37;24.10;60.50
27823;DHT22;29019;47.630;8.262;2023-08-21T18:02:38;24.10;60.50
27823;DHT22;29019;47.630;8.262;2023-08-21T18:06:39;24.10;60.50
27823;DHT22;29019;47.630;8.262;2023-08-21T18:10:39;24.10;61.20
27823;DHT22;29019;47.630;8.262;2023-08-21T18:14:40;24.10;60.50
27823;DHT22;29019;47.630;8.262;2023-08-21T18:18:40;24.10;60.50
27823;DHT22;29019;47.630;8.262;2023-08-21T18:22:42;24.10;60.50
27823;DHT22;29019;47.630;8.262;2023-08-21T18:26:43;24.10;60.50
27823;DHT22;29019;47.630;8.262;2023-08-21T18:30:43;24.10;60.50
27823;DHT22;29019;47.630;8.262;2023-08-21T18:34:44;24.10;60.50
27823;DHT22;29019;47.630;8.262;2023-08-21T18:38:44;24.10;60.50
27823;DHT22;29019;47.630;8.262;2023-08-21T18:42:45;24.10;60.60
27823;DHT22;29019;47.630;8.262;2023-08-21T18:46:45;24.10;60.60
27823;DHT22;29019;47.630;8.262;2023-08-21T18:50:46;24.10;60.60
27823;DHT22;29019;47.630;8.262;2023-08-21T18:54:46;24.10;60.70
27823;DHT22;29019;47.630;8.262;2023-08-21T18:58:47;24.10;60.50
27823;DHT22;29019;47.630;8.262;2023-08-21T19:02:47;24.10;60.70
27823;DHT22;29019;47.630;8.262;2023-08-21T19:06:48;24.10;60.60
27823;DHT22;29019;47.630;8.262;2023-08-21T19:10:50;24.10;60.90
27823;DHT22;29019;47.630;8.262;2023-08-21T19:14:50;24.10;60.90
27823;DHT22;29019;47.630;8.262;2023-08-21T19:18:51;24.10;60.80
27823;DHT22;29019;47.630;8.262;2023-08-21T19:22:52;24.10;60.70
27823;DHT22;29019;47.630;8.262;2023-08-21T19:26:53;24.20;60.70
27823;DHT22;29019;47.630;8.262;2023-08-21T19:30:53;24.20;60.70
27823;DHT22;29019;47.630;8.262;2023-08-21T19:34:57;24.20;60.60
27823;DHT22;29019;47.630;8.262;2023-08-21T19:38:57;24.20;60.50
27823;DHT22;29019;47.630;8.262;2023-08-21T19:42:58;24.20;60.60
27823;DHT22;29019;47.630;8.262;2023-08-21T19:47:00;24.20;60.60
27823;DHT22;29019;47.630;8.262;2023-08-21T19:51:00;24.20;60.60
27823;DHT22;29019;47.630;8.262;2023-08-21T19:55:01;24.20;60.50
27823;DHT22;29019;47.630;8.262;2023-08-21T19:59:01;24.20;60.50
27823;DHT22;29019;47.630;8.262;2023-08-21T20:03:03;24.20;60.50
27823;DHT22;29019;47.630;8.262;2023-08-21T20:07:04;24.20;60.50
27823;DHT22;29019;47.630;8.262;2023-08-21T20:11:10;24.20;60.60
27823;DHT22;29019;47.630;8.262;2023-08-21T20:15:11;24.20;60.70
27823;DHT22;29019;47.630;8.262;2023-08-21T20:19:11;24.20;60.60
27823;DHT22;29019;47.630;8.262;2023-08-21T20:23:12;24.10;60.60
27823;DHT22;29019;47.630;8.262;2023-08-21T20:27:12;24.10;60.70
27823;DHT22;29019;47.630;8.262;2023-08-21T20:31:13;24.10;60.80
27823;DHT22;29019;47.630;8.262;2023-08-21T20:35:14;24.10;60.90
27823;DHT22;29019;47.630;8.262;2023-08-21T20:39:14;24.10;60.90
27823;DHT22;29019;47.630;8.262;2023-08-21T20:43:15;24.10;60.80
27823;DHT22;29019;47.630;8.262;2023-08-21T20:47:15;24.10;60.70
27823;DHT22;29019;47.630;8.262;2023-08-21T20:51:16;24.10;60.70
27823;DHT22;29019;47.630;8.262;2023-08-21T20:55:17;24.10;60.70
27823;DHT22;29019;47.630;8.262;2023-08-21T20:59:17;24.10;60.70
27823;DHT22;29019;47.630;8.262;2023-08-21T21:03:18;24.10;60.80
27823;DHT22;29019;47.630;8.262;2023-08-21T21:07:19;24.10;60.70
27823;DHT22;29019;47.630;8.262;2023-08-21T21:11:21;24.10;60.70
27823;DHT22;29019;47.630;8.262;2023-08-21T21:15:21;24.10;60.70
27823;DHT22;29019;47.630;8.262;2023-08-21T21:19:22;24.10;60.70
27823;DHT22;29019;47.630;8.262;2023-08-21T21:23:22;24.10;60.70
27823;DHT22;29019;47.630;8.262;2023-08-21T21:27:23;24.10;60.70
27823;DHT22;29019;47.630;8.262;2023-08-21T21:31:23;24.10;60.70
27823;DHT22;29019;47.630;8.262;2023-08-21T21:35:26;24.10;60.70
27823;DHT22;29019;47.630;8.262;2023-08-21T21:39:26;24.10;60.70
27823;DHT22;29019;47.630;8.262;2023-08-21T21:43:27;24.10;60.70
27823;DHT22;29019;47.630;8.262;2023-08-21T21:47:28;24.10;60.70
27823;DHT22;29019;47.630;8.262;2023-08-21T21:51:28;24.10;60.70
27823;DHT22;29019;47.630;8.262;2023-08-21T21:55:29;24.10;60.70
27823;DHT22;29019;47.630;8.262;2023-08-21T21:59:30;24.10;60.70
27823;DHT22;29019;47.630;8.262;2023-08-21T22:03:31;24.10;60.70
27823;DHT22;29019;47.630;8.262;2023-08-21T22:07:31;24.10;60.70
27823;DHT22;29019;47.630;8.262;2023-08-21T22:11:32;24.10;60.80
27823;DHT22;29019;47.630;8.262;2023-08-21T22:15:33;24.10;60.90
27823;DHT22;29019;47.630;8.262;2023-08-21T22:19:36;24.10;60.90
27823;DHT22;29019;47.630;8.262;2023-08-21T22:23:37;24.10;60.90
27823;DHT22;29019;47.630;8.262;2023-08-21T22:27:38;24.10;60.90
27823;DHT22;29019;47.630;8.262;2023-08-21T22:31:39;24.10;61.70
27823;DHT22;29019;47.630;8.262;2023-08-21T22:35:39;24.10;60.80
27823;DHT22;29019;47.630;8.262;2023-08-21T22:39:40;24.10;60.90
27823;DHT22;29019;47.630;8.262;2023-08-21T22:43:41;24.10;60.80
27823;DHT22;29019;47.630;8.262;2023-08-21T22:47:41;24.10;60.80
27823;DHT22;29019;47.630;8.262;2023-08-21T22:51:42;24.10;60.80
27823;DHT22;29019;47.630;8.262;2023-08-21T22:55:51;24.10;60.80
27823;DHT22;29019;47.630;8.262;2023-08-21T22:59:51;24.10;60.90
27823;DHT22;29019;47.630;8.262;2023-08-21T23:03:53;24.10;60.90
27823;DHT22;29019;47.630;8.262;2023-08-21T23:07:53;24.10;60.90
27823;DHT22;29019;47.630;8.262;2023-08-21T23:11:54;24.10;60.90
27823;DHT22;29019;47.630;8.262;2023-08-21T23:15:55;24.10;60.90
27823;DHT22;29019;47.630;8.262;2023-08-21T23:19:55;24.10;60.90
27823;DHT22;29019;47.630;8.262;2023-08-21T23:23:56;24.10;60.80
27823;DHT22;29019;47.630;8.262;2023-08-21T23:27:56;24.10;60.90
27823;DHT22;29019;47.630;8.262;2023-08-21T23:31:57;24.10;60.80
27823;DHT22;29019;47.630;8.262;2023-08-21T23:35:57;24.10;60.90
27823;DHT22;29019;47.630;8.262;2023-08-21T23:39:58;24.10;60.90
27823;DHT22;29019;47.630;8.262;2023-08-21T23:43:59;24.10;60.90
27823;DHT22;29019;47.630;8.262;2023-08-21T23:48:02;24.10;60.90
27823;DHT22;29019;47.630;8.262;2023-08-21T23:52:03;24.10;60.90
27823;DHT22;29019;47.630;8.262;2023-08-21T23:56:03;24.10;60.90
